Terminal Aerodrome Forecast
Issued by NWS Omaha/Valley, NE

Home | Current Version | Previous Version | Graphics & Text | Print | Product List | Glossary On
Versions: 1 2 3 4 5 6 7 8 9 10 11 12 13 14 15 16 17 18 19 20 21 22 23 24 25 26 27 28 29 30 31 32 33 34 35 36 37 38 39
000
FTUS43 KOAX 281740
TAFOFK
TAF
KOFK 281740Z 2818/2918 05011KT 3SM -SN OVC008
     FM282000 05011KT 3SM -RASN OVC008
     FM282200 04014G22KT 6SM -RA BKN015 OVC025
     FM290000 04011KT P6SM OVC025
     FM290500 02010KT P6SM OVC035
     FM291500 03014KT P6SM OVC030=

USA.gov is the U.S. government's official web portal to all federal, state and local government web resources and services.